createdAt,value
2019-02-19T00:02:06.415Z,23.77
2019-02-19T00:04:35.811Z,24.83
2019-02-19T00:07:05.248Z,24.27
2019-02-19T00:09:34.686Z,22.87
2019-02-19T00:12:04.352Z,23.70
2019-02-19T00:14:33.905Z,21.97
2019-02-19T00:17:03.375Z,23.20
2019-02-19T00:19:32.842Z,25.70
2019-02-19T00:22:02.271Z,23.50
2019-02-19T00:24:33.951Z,22.23
2019-02-19T00:27:04.311Z,23.63
2019-02-19T00:29:33.768Z,24.13
2019-02-19T00:32:03.199Z,22.53
2019-02-19T00:34:32.643Z,23.47
2019-02-19T00:37:02.115Z,22.83
2019-02-19T00:39:31.535Z,23.83
2019-02-19T00:42:00.991Z,24.17
2019-02-19T00:44:33.121Z,27.93
2019-02-19T00:47:03.772Z,23.20
2019-02-19T00:49:33.261Z,23.67
2019-02-19T00:52:02.632Z,27.53
2019-02-19T00:54:33.140Z,22.30
2019-02-19T00:57:02.585Z,25.80
2019-02-19T00:59:32.009Z,23.70
2019-02-19T01:02:01.445Z,26.30
2019-02-19T01:04:30.951Z,23.67
2019-02-19T01:07:00.476Z,22.30
2019-02-19T01:09:30.227Z,23.93
2019-02-19T01:11:59.683Z,24.27
2019-02-19T01:14:29.105Z,24.43
2019-02-19T01:16:58.558Z,22.30
2019-02-19T01:19:27.921Z,23.40
2019-02-19T01:21:57.373Z,23.70
2019-02-19T01:24:26.814Z,24.50
2019-02-19T01:26:56.169Z,24.03
2019-02-19T01:29:25.714Z,24.47
2019-02-19T01:31:55.811Z,23.23
2019-02-19T01:34:25.958Z,27.93
2019-02-19T01:36:56.046Z,23.97
2019-02-19T01:39:26.189Z,26.33
2019-02-19T01:41:56.346Z,24.50
2019-02-19T01:44:26.411Z,23.20
2019-02-19T01:46:56.459Z,25.43
2019-02-19T01:49:26.721Z,24.73
2019-02-19T01:51:56.784Z,23.27
2019-02-19T01:54:26.891Z,24.73
2019-02-19T01:56:57.048Z,23.97
2019-02-19T01:59:27.227Z,26.20
2019-02-19T02:01:57.331Z,25.55
2019-02-19T02:04:27.448Z,26.00
2019-02-19T02:06:57.502Z,25.73
2019-02-19T02:09:27.628Z,25.43
2019-02-19T02:11:58.684Z,25.03
2019-02-19T02:14:28.145Z,26.83
2019-02-19T02:16:58.035Z,28.43
2019-02-19T02:19:28.262Z,26.23
2019-02-19T02:22:00.016Z,27.90
2019-02-19T02:24:29.449Z,27.10
2019-02-19T02:26:58.809Z,26.90
2019-02-19T02:29:28.718Z,24.70
2019-02-19T02:31:58.862Z,26.80
2019-02-19T02:34:29.204Z,27.27
2019-02-19T02:36:59.279Z,28.77
2019-02-19T02:39:29.392Z,26.37
2019-02-19T02:41:59.532Z,31.13
2019-02-19T02:44:29.608Z,28.53
2019-02-19T02:46:59.748Z,28.67
2019-02-19T02:49:29.858Z,28.60
2019-02-19T02:51:59.984Z,30.57
2019-02-19T02:54:30.087Z,31.07
2019-02-19T02:57:00.318Z,31.57
2019-02-19T02:59:30.501Z,30.23
2019-02-19T03:02:00.563Z,32.07
2019-02-19T03:04:30.666Z,32.97
2019-02-19T03:07:05.149Z,33.85
2019-02-19T03:09:34.594Z,35.73
2019-02-19T03:12:04.111Z,37.27
2019-02-19T03:14:33.554Z,37.90
2019-02-19T03:17:03.020Z,37.23
2019-02-19T03:19:32.434Z,38.63
2019-02-19T03:22:01.860Z,37.33
2019-02-19T03:24:31.704Z,35.93
2019-02-19T03:27:01.818Z,37.07
2019-02-19T03:29:32.139Z,38.20
2019-02-19T03:32:02.635Z,38.60
2019-02-19T03:34:32.336Z,37.87
2019-02-19T03:37:02.360Z,39.33
2019-02-19T03:39:32.489Z,37.40
2019-02-19T03:42:02.607Z,38.33
2019-02-19T03:44:32.729Z,42.53
2019-02-19T03:47:02.938Z,37.63
2019-02-19T03:49:33.057Z,37.50
2019-02-19T03:52:03.174Z,35.87
2019-02-19T03:54:33.459Z,36.15
2019-02-19T03:57:03.591Z,37.55
2019-02-19T03:59:33.713Z,39.47
2019-02-19T04:02:03.893Z,38.20
2019-02-19T04:04:33.937Z,39.97
2019-02-19T04:07:03.980Z,39.27
2019-02-19T04:09:34.232Z,39.65
2019-02-19T04:12:04.388Z,38.53
2019-02-19T04:14:34.470Z,37.03
2019-02-19T04:17:04.635Z,38.03
2019-02-19T04:19:34.696Z,37.23
2019-02-19T04:22:04.891Z,37.80
2019-02-19T04:24:35.026Z,36.20
2019-02-19T04:27:05.397Z,39.13
2019-02-19T04:29:35.282Z,36.07
2019-02-19T04:32:06.339Z,36.13
2019-02-19T04:34:35.790Z,34.03
2019-02-19T04:37:05.748Z,34.07
2019-02-19T04:39:35.898Z,33.50
2019-02-19T04:42:05.996Z,35.40
2019-02-19T04:44:36.157Z,32.63
2019-02-19T04:47:06.282Z,38.63
2019-02-19T04:49:36.403Z,31.90
2019-02-19T04:52:06.494Z,28.63
2019-02-19T04:54:36.750Z,29.52
2019-02-19T04:57:06.830Z,32.78
2019-02-19T04:59:38.610Z,29.42
2019-02-19T05:02:10.525Z,27.67
2019-02-19T05:04:39.976Z,27.77
2019-02-19T05:07:09.414Z,26.47
2019-02-19T05:09:38.852Z,32.67
2019-02-19T05:12:09.370Z,31.10
2019-02-19T05:14:38.812Z,32.20
2019-02-19T05:17:08.613Z,34.50
2019-02-19T05:19:38.786Z,34.27
2019-02-19T05:22:08.936Z,35.90
2019-02-19T05:24:38.973Z,39.90
2019-02-19T05:27:09.110Z,37.37
2019-02-19T05:29:39.251Z,38.47
2019-02-19T05:32:09.386Z,37.93
2019-02-19T05:34:39.910Z,41.40
2019-02-19T05:37:11.380Z,36.73
2019-02-19T05:39:40.826Z,40.23
2019-02-19T05:42:10.272Z,36.13
2019-02-19T05:44:40.069Z,35.30
2019-02-19T05:47:09.518Z,34.63
2019-02-19T05:49:38.951Z,38.67
2019-02-19T05:52:08.389Z,35.83
2019-02-19T05:54:37.759Z,32.67
2019-02-19T06:00:35.376Z,31.83
2019-02-19T06:03:04.908Z,30.50
2019-02-19T06:05:34.426Z,29.97
2019-02-19T06:08:03.907Z,33.93
2019-02-19T06:10:33.321Z,30.10
2019-02-19T06:13:02.781Z,26.13
2019-02-19T06:15:32.223Z,28.47
2019-02-19T06:18:01.661Z,28.07
2019-02-19T06:20:31.017Z,26.67
2019-02-19T06:23:00.482Z,25.57
2019-02-19T06:25:29.935Z,25.30
2019-02-19T06:27:59.357Z,22.00
2019-02-19T06:30:28.726Z,21.67
2019-02-19T06:32:58.154Z,25.67
2019-02-19T06:35:27.529Z,23.73
2019-02-19T06:37:57.061Z,22.23
2019-02-19T06:40:28.473Z,21.37
2019-02-19T06:42:57.982Z,24.50
2019-02-19T06:45:29.801Z,23.73
2019-02-19T06:47:59.155Z,21.73
2019-02-19T06:50:28.599Z,23.20
2019-02-19T06:52:58.039Z,25.57
2019-02-19T06:55:30.297Z,20.63
2019-02-19T06:57:59.841Z,26.50
2019-02-19T07:00:29.279Z,23.67
2019-02-19T07:03:00.359Z,22.70
2019-02-19T07:05:29.876Z,21.70
2019-02-19T07:07:59.382Z,22.50
2019-02-19T07:10:30.061Z,23.93
2019-02-19T07:12:59.478Z,22.60
2019-02-19T07:15:28.904Z,27.97
2019-02-19T07:17:58.335Z,23.33
2019-02-19T07:20:27.705Z,21.17
2019-02-19T07:22:57.081Z,22.40
2019-02-19T07:25:26.573Z,21.03
2019-02-19T07:27:56.013Z,22.27
2019-02-19T07:30:25.458Z,23.47
2019-02-19T07:32:54.891Z,20.00
2019-02-19T07:35:24.247Z,25.77
2019-02-19T07:37:53.723Z,21.57
2019-02-19T07:40:23.162Z,23.20
2019-02-19T07:42:54.221Z,20.97
2019-02-19T07:45:23.575Z,20.23
2019-02-19T07:47:52.951Z,19.37
2019-02-19T07:50:25.167Z,21.43
2019-02-19T07:52:54.611Z,21.20
2019-02-19T07:55:24.031Z,20.40
2019-02-19T07:57:53.467Z,18.37
2019-02-19T08:00:22.818Z,25.63
2019-02-19T08:02:53.922Z,19.90
2019-02-19T08:05:25.947Z,22.47
2019-02-19T08:07:55.876Z,17.87
2019-02-19T08:10:25.314Z,20.83
2019-02-19T08:12:54.812Z,18.83
2019-02-19T08:15:24.361Z,22.70
2019-02-19T08:17:54.877Z,17.23
2019-02-19T08:20:24.332Z,22.97
2019-02-19T08:22:53.747Z,18.77
2019-02-19T08:25:23.141Z,18.77
2019-02-19T08:27:52.575Z,16.13
2019-02-19T08:30:22.113Z,18.57
2019-02-19T08:32:51.550Z,18.50
2019-02-19T08:35:21.016Z,21.73
2019-02-19T08:37:50.444Z,18.77
2019-02-19T08:40:20.216Z,15.93
2019-02-19T08:42:50.311Z,21.10
2019-02-19T08:45:20.443Z,21.40
2019-02-19T08:47:50.542Z,19.07
2019-02-19T08:50:20.776Z,21.60
2019-02-19T08:52:50.873Z,22.77
2019-02-19T08:55:20.996Z,18.27
2019-02-19T08:57:51.116Z,20.47
2019-02-19T09:00:21.308Z,17.40
2019-02-19T09:02:54.072Z,17.80
2019-02-19T09:05:23.455Z,18.60
2019-02-19T09:07:52.896Z,19.90
2019-02-19T09:10:22.373Z,18.63
2019-02-19T09:12:51.806Z,16.17
2019-02-19T09:15:22.411Z,16.23
2019-02-19T09:17:52.443Z,17.53
2019-02-19T09:20:22.303Z,19.35
2019-02-19T09:22:52.460Z,19.32
2019-02-19T09:25:22.432Z,22.60
2019-02-19T09:27:52.606Z,21.33
2019-02-19T09:30:22.710Z,18.45
2019-02-19T09:32:52.858Z,20.77
2019-02-19T09:35:22.971Z,18.80
2019-02-19T09:37:53.097Z,18.07
2019-02-19T09:40:23.200Z,19.70
2019-02-19T09:42:53.340Z,21.20
2019-02-19T09:45:23.489Z,18.27
2019-02-19T09:48:01.007Z,19.65
2019-02-19T09:50:24.700Z,18.53
2019-02-19T09:53:00.112Z,18.13
2019-02-19T09:55:25.225Z,17.97
2019-02-19T09:57:54.700Z,19.53
2019-02-19T10:00:24.402Z,20.73
2019-02-19T10:02:55.375Z,20.37
2019-02-19T10:05:24.821Z,17.90
2019-02-19T10:07:55.873Z,20.80
2019-02-19T10:10:25.507Z,19.20
2019-02-19T10:12:55.042Z,17.23
2019-02-19T10:15:25.218Z,19.43
2019-02-19T10:17:55.282Z,18.43
2019-02-19T10:20:25.352Z,18.40
2019-02-19T10:22:55.587Z,24.43
2019-02-19T10:25:25.702Z,17.60
2019-02-19T10:27:55.841Z,16.97
2019-02-19T10:30:25.953Z,17.50
2019-02-19T10:32:56.175Z,20.23
2019-02-19T10:35:28.558Z,14.90
2019-02-19T10:37:58.010Z,20.07
2019-02-19T10:40:27.432Z,18.23
2019-02-19T10:42:56.802Z,17.13
2019-02-19T10:45:27.486Z,21.07
2019-02-19T10:47:56.936Z,19.97
2019-02-19T10:50:26.992Z,17.13
2019-02-19T10:52:57.076Z,16.43
2019-02-19T10:55:27.206Z,17.73
2019-02-19T10:57:57.486Z,19.03
2019-02-19T11:00:27.554Z,18.07
2019-02-19T11:02:57.674Z,16.90
2019-02-19T11:05:27.800Z,15.53
2019-02-19T11:07:57.887Z,17.40
2019-02-19T11:10:28.023Z,18.37
2019-02-19T11:12:58.131Z,19.43
2019-02-19T11:15:28.258Z,20.90
2019-02-19T11:17:58.359Z,14.83
2019-02-19T11:20:29.003Z,18.17
2019-02-19T11:22:58.584Z,21.97
2019-02-19T11:25:28.746Z,18.87
2019-02-19T11:27:59.092Z,17.07
2019-02-19T11:30:29.176Z,19.67
2019-02-19T11:32:59.324Z,15.93
2019-02-19T11:35:29.383Z,17.17
2019-02-19T11:37:59.500Z,21.70
2019-02-19T11:40:29.645Z,17.40
2019-02-19T11:42:59.743Z,22.43
2019-02-19T11:45:30.262Z,19.27
2019-02-19T11:48:00.380Z,19.62
2019-02-19T11:50:30.314Z,18.60
2019-02-19T11:53:00.303Z,19.13
2019-02-19T11:55:30.556Z,17.43
2019-02-19T11:58:00.603Z,19.83
2019-02-19T12:00:35.363Z,17.23
2019-02-19T12:03:04.935Z,16.23
2019-02-19T12:05:34.391Z,18.97
2019-02-19T12:08:03.838Z,18.37
2019-02-19T12:10:33.287Z,21.53
2019-02-19T12:13:02.800Z,20.23
2019-02-19T12:15:35.122Z,19.03
2019-02-19T12:18:03.389Z,20.80
2019-02-19T12:20:32.816Z,16.63
2019-02-19T12:23:02.271Z,19.00
2019-02-19T12:25:32.089Z,21.43
2019-02-19T12:28:02.150Z,20.47
2019-02-19T12:30:32.251Z,23.03
2019-02-19T12:33:02.385Z,19.03
2019-02-19T12:35:33.868Z,18.47
2019-02-19T12:38:03.256Z,20.90
2019-02-19T12:40:32.706Z,16.17
2019-02-19T12:43:02.943Z,16.42
2019-02-19T12:45:33.056Z,21.70
2019-02-19T12:48:03.177Z,18.93
2019-02-19T12:50:33.305Z,25.27
2019-02-19T12:53:03.527Z,17.77
2019-02-19T12:55:33.513Z,18.50
2019-02-19T12:58:03.749Z,17.57
2019-02-19T13:00:33.907Z,17.60
2019-02-19T13:03:03.998Z,15.00
2019-02-19T13:05:34.205Z,15.80
2019-02-19T13:08:04.333Z,15.60
2019-02-19T13:10:34.315Z,21.07
2019-02-19T13:13:04.695Z,18.60
2019-02-19T13:15:34.797Z,19.53
2019-02-19T13:18:04.865Z,20.20
2019-02-19T13:20:34.895Z,17.70
2019-02-19T13:23:05.119Z,16.45
2019-02-19T13:25:35.132Z,14.37
2019-02-19T13:28:05.649Z,18.57
2019-02-19T13:30:35.476Z,14.80
2019-02-19T13:33:04.995Z,14.23
2019-02-19T13:35:34.506Z,22.63
2019-02-19T13:38:03.952Z,16.70
2019-02-19T13:40:33.384Z,20.43
2019-02-19T13:43:02.823Z,21.07
2019-02-19T13:45:32.360Z,19.17
2019-02-19T13:48:06.158Z,19.27
2019-02-19T13:50:36.523Z,16.47
2019-02-19T13:53:08.275Z,20.45
2019-02-19T13:55:41.896Z,18.30
2019-02-19T13:58:11.335Z,19.30
2019-02-19T14:00:42.493Z,19.87
2019-02-19T14:03:11.946Z,18.40
2019-02-19T14:05:41.391Z,19.10
2019-02-19T14:08:14.524Z,20.27
2019-02-19T14:10:42.079Z,17.70
2019-02-19T14:13:11.506Z,20.10
2019-02-19T14:15:58.862Z,17.40
2019-02-19T14:18:29.939Z,18.30
2019-02-19T14:21:03.823Z,16.63
2019-02-19T14:23:38.020Z,16.33
2019-02-19T14:26:28.262Z,20.63
2019-02-19T14:28:59.335Z,19.43
2019-02-19T14:31:45.726Z,19.13
2019-02-19T14:34:33.246Z,18.60
2019-02-19T14:37:08.968Z,18.57
2019-02-19T14:39:43.692Z,19.10
2019-02-19T14:42:31.267Z,19.13
2019-02-19T14:45:02.425Z,17.60
2019-02-19T14:47:46.144Z,13.23
2019-02-19T14:50:23.666Z,17.83
2019-02-19T14:52:57.721Z,17.17
2019-02-19T14:55:34.850Z,17.13
2019-02-19T14:58:06.057Z,20.50
2019-02-19T15:00:37.101Z,16.80
2019-02-19T15:03:14.198Z,17.83
2019-02-19T15:05:54.250Z,21.03
2019-02-19T15:08:34.006Z,17.97
2019-02-19T15:11:10.814Z,15.20
2019-02-19T15:13:41.958Z,21.80
2019-02-19T15:16:19.455Z,15.47
2019-02-19T15:18:53.266Z,21.67
2019-02-19T15:21:26.940Z,19.17
2019-02-19T15:24:14.372Z,17.43
2019-02-19T15:26:52.468Z,20.73
2019-02-19T15:29:43.584Z,25.27
2019-02-19T15:32:14.660Z,18.80
2019-02-19T15:35:02.298Z,18.17
2019-02-19T15:37:45.291Z,16.50
2019-02-19T15:40:25.630Z,19.60
2019-02-19T15:42:59.409Z,20.77
2019-02-19T15:45:34.112Z,19.27
2019-02-19T15:48:05.110Z,23.20
2019-02-19T15:50:52.280Z,19.73
2019-02-19T15:53:23.350Z,18.80
2019-02-19T15:56:17.162Z,22.10
2019-02-19T15:58:58.070Z,16.80
2019-02-19T16:01:44.319Z,19.63
2019-02-19T16:04:31.797Z,17.97
2019-02-19T16:07:05.618Z,15.33
2019-02-19T16:09:44.056Z,16.43
2019-02-19T16:12:15.879Z,14.80
2019-02-19T16:14:49.859Z,19.03
2019-02-19T16:17:23.578Z,13.97
2019-02-19T16:19:57.035Z,14.03
2019-02-19T16:22:33.473Z,20.33
2019-02-19T16:25:20.865Z,15.27
2019-02-19T16:27:52.512Z,16.10
2019-02-19T16:30:32.889Z,18.47
2019-02-19T16:33:04.072Z,16.47
2019-02-19T16:35:38.122Z,15.03
2019-02-19T16:38:10.316Z,14.47
2019-02-19T16:40:45.999Z,15.43
2019-02-19T16:43:17.773Z,21.63
2019-02-19T16:45:51.658Z,19.77
2019-02-19T16:48:28.975Z,26.87
2019-02-19T16:51:16.567Z,18.60
2019-02-19T16:54:04.637Z,19.35
2019-02-19T16:56:41.579Z,17.60
2019-02-19T16:59:12.774Z,16.27
2019-02-19T17:01:46.772Z,15.10
2019-02-19T17:04:18.807Z,17.97
2019-02-19T17:06:52.742Z,18.87
2019-02-19T17:09:23.843Z,22.83
2019-02-19T17:11:54.935Z,16.63
2019-02-19T17:14:33.257Z,21.07
2019-02-19T17:17:01.574Z,16.43
2019-02-19T17:19:50.391Z,18.87
2019-02-19T17:22:23.939Z,22.20
2019-02-19T17:24:55.108Z,16.77
2019-02-19T17:27:36.584Z,20.97
2019-02-19T17:30:27.135Z,16.00
2019-02-19T17:33:00.972Z,18.77
2019-02-19T17:35:32.088Z,24.10
2019-02-19T17:38:14.665Z,20.23
2019-02-19T17:40:56.923Z,18.80
2019-02-19T17:43:33.980Z,18.33
2019-02-19T17:46:07.609Z,19.20
2019-02-19T17:48:38.701Z,18.23
2019-02-19T17:51:09.859Z,18.67
2019-02-19T17:53:49.684Z,18.13
2019-02-19T17:56:24.159Z,22.37
2019-02-19T17:59:13.649Z,20.33
2019-02-19T18:02:00.943Z,25.93
2019-02-19T18:04:32.099Z,23.43
2019-02-19T18:07:19.535Z,19.90
2019-02-19T18:09:50.680Z,27.20
2019-02-19T18:12:25.365Z,22.17
2019-02-19T18:15:05.302Z,21.40
2019-02-19T18:17:36.449Z,23.83
2019-02-19T18:20:07.831Z,18.17
2019-02-19T18:22:37.719Z,18.97
2019-02-19T18:25:07.799Z,24.77
2019-02-19T18:27:37.930Z,21.33
2019-02-19T18:30:11.257Z,21.13
2019-02-19T18:32:40.839Z,21.60
2019-02-19T18:35:10.418Z,27.93
2019-02-19T18:37:41.239Z,24.10
2019-02-19T18:40:10.741Z,23.47
2019-02-19T18:42:41.821Z,21.03
2019-02-19T18:45:11.325Z,28.80
2019-02-19T18:47:42.691Z,25.57
2019-02-19T18:50:12.274Z,24.67
2019-02-19T18:52:43.304Z,26.03
2019-02-19T18:55:12.819Z,24.40
2019-02-19T18:57:43.905Z,19.07
2019-02-19T19:00:13.770Z,18.80
2019-02-19T19:02:43.252Z,25.07
2019-02-19T19:05:13.731Z,23.17
2019-02-19T19:07:44.854Z,23.23
2019-02-19T19:10:16.024Z,23.80
2019-02-19T19:12:47.426Z,23.63
2019-02-19T19:15:16.913Z,19.97
2019-02-19T19:17:46.371Z,26.50
2019-02-19T19:20:15.857Z,22.10
2019-02-19T19:22:47.044Z,24.80
2019-02-19T19:25:20.382Z,27.23
2019-02-19T19:27:50.548Z,20.47
2019-02-19T19:30:20.154Z,21.77
2019-02-19T19:32:49.693Z,26.90
2019-02-19T19:35:21.879Z,24.63
2019-02-19T19:37:53.538Z,26.97
2019-02-19T19:40:27.059Z,26.80
2019-02-19T19:42:57.635Z,22.13
2019-02-19T19:45:27.809Z,27.63
2019-02-19T19:47:58.042Z,21.03
2019-02-19T19:50:28.215Z,26.27
2019-02-19T19:53:00.206Z,23.43
2019-02-19T19:55:29.728Z,21.87
2019-02-19T19:58:00.377Z,25.63
2019-02-19T20:00:31.970Z,22.73
2019-02-19T20:03:02.789Z,22.93
2019-02-19T20:05:33.217Z,26.30
2019-02-19T20:08:02.733Z,25.23
2019-02-19T20:10:33.176Z,22.93
2019-02-19T20:13:03.913Z,21.70
2019-02-19T20:15:34.404Z,20.07
2019-02-19T20:18:09.809Z,22.83
2019-02-19T20:20:39.064Z,27.13
2019-02-19T20:23:08.504Z,25.07
2019-02-19T20:25:38.033Z,27.63
2019-02-19T20:28:08.941Z,21.17
2019-02-19T20:30:42.918Z,20.73
2019-02-19T20:33:12.441Z,19.97
2019-02-19T20:35:44.052Z,23.70
2019-02-19T20:38:16.774Z,21.43
2019-02-19T20:40:52.201Z,22.47
2019-02-19T20:43:21.682Z,19.97
2019-02-19T20:45:51.200Z,22.97
2019-02-19T20:48:22.032Z,23.93
2019-02-19T20:50:52.902Z,25.70
2019-02-19T20:53:23.457Z,22.97
2019-02-19T20:55:58.876Z,21.40
2019-02-19T20:58:28.503Z,21.57
2019-02-19T21:00:58.033Z,22.03
2019-02-19T21:03:38.678Z,25.83
2019-02-19T21:06:11.145Z,25.47
2019-02-19T21:08:42.582Z,20.93
2019-02-19T21:11:12.098Z,21.47
2019-02-19T21:13:41.650Z,23.43
2019-02-19T21:16:12.802Z,21.03
2019-02-19T21:18:42.248Z,21.43
2019-02-19T21:21:12.878Z,22.67
2019-02-19T21:23:42.365Z,21.93
2019-02-19T21:26:11.855Z,22.43
2019-02-19T21:28:41.377Z,23.57
2019-02-19T21:31:10.949Z,21.27
2019-02-19T21:33:41.652Z,27.87
2019-02-19T21:36:11.258Z,18.53
2019-02-19T21:38:41.476Z,23.15
2019-02-19T21:41:11.496Z,19.83
2019-02-19T21:43:41.808Z,16.57
2019-02-19T21:46:12.446Z,21.70
2019-02-19T21:48:48.014Z,22.58
2019-02-19T21:51:14.219Z,25.13
2019-02-19T21:53:43.681Z,19.73
2019-02-19T21:56:13.148Z,18.73
2019-02-19T21:58:42.654Z,20.37
2019-02-19T22:01:13.186Z,21.77
2019-02-19T22:03:43.345Z,28.47
2019-02-19T22:06:13.464Z,30.53
2019-02-19T22:08:43.569Z,28.93
2019-02-19T22:11:13.763Z,22.70
2019-02-19T22:13:43.874Z,25.53
2019-02-19T22:16:13.928Z,21.97
2019-02-19T22:18:44.038Z,29.63
2019-02-19T22:21:16.060Z,26.80
2019-02-19T22:23:45.569Z,32.13
2019-02-19T22:26:15.020Z,24.23
2019-02-19T22:28:44.513Z,23.10
2019-02-19T22:31:14.654Z,23.63
2019-02-19T22:33:44.908Z,26.35
2019-02-19T22:36:14.992Z,24.07
2019-02-19T22:38:45.593Z,29.57
2019-02-19T22:41:15.062Z,23.70
2019-02-19T22:43:45.265Z,24.10
2019-02-19T22:46:15.474Z,25.07
2019-02-19T22:48:45.848Z,25.40
2019-02-19T22:51:15.783Z,22.85
2019-02-19T22:53:53.100Z,23.93
2019-02-19T22:56:27.143Z,25.63
2019-02-19T22:58:56.580Z,25.40
2019-02-19T23:01:28.439Z,21.93
2019-02-19T23:03:58.013Z,27.57
2019-02-19T23:06:27.476Z,26.00
2019-02-19T23:08:57.038Z,24.93
2019-02-19T23:11:26.545Z,19.37
2019-02-19T23:13:55.937Z,25.87
2019-02-19T23:16:25.382Z,24.30
2019-02-19T23:18:54.824Z,25.53
2019-02-19T23:21:24.172Z,25.93
2019-02-19T23:23:53.560Z,21.67
2019-02-19T23:26:23.085Z,23.70
2019-02-19T23:28:52.582Z,23.87
2019-02-19T23:31:22.021Z,27.30
2019-02-19T23:33:51.448Z,21.77
2019-02-19T23:36:22.582Z,23.30
2019-02-19T23:38:51.964Z,26.30
2019-02-19T23:41:21.458Z,26.03
2019-02-19T23:43:50.986Z,23.27
2019-02-19T23:46:20.420Z,26.27
2019-02-19T23:48:49.858Z,31.17
2019-02-19T23:51:19.298Z,25.87
2019-02-19T23:53:48.974Z,25.03
2019-02-19T23:56:19.080Z,20.77
2019-02-19T23:58:49.204Z,22.73
